MacAlister, Canada
Current Conditions -  °F | °C
As of 4:00 PM on Monday 22 Dec 2014 (Local Time) from CYWL Reporting Station
Overcast Overcast  
Wind Chill: -5°   Ceiling: 22000
Heat Index: -2°   Visibility: 15mi
Dew Point: -4°   Wind: 5mph
Humidity: 86%   Direction: 120°ESE
Pressure: 30.21"   Gusts: NA
Location:  52.45°N, 122.4°W
Report Text: CYWL 230000Z 12004KT 15SM SCT090 OVC220 M02/M04 A3021 RMK AC4CI4 SLP277
Loading
Personal Weather Stations






























Interactive Weather Map New forecast layout! Learn more

10-Day Weather Forecast

Advertisements
Track Severe Weather on mobile